Time;durP1;ratioP1;P1;durP2;ratioP2;P2;SDS_P1;SDS_P2;PMS_P1;PMS_P2;Temp;Humidity;BMP_temperature;BMP_pressure;BME280_temperature;BME280_humidity;BME280_pressure;Samples;Min_cycle;Max_cycle;Signal;HPM_P1;HPM_P2
2022/09/08 00:02:17;;;;;;;7.53;6.30;;;;;;;18.01;90.21;99736.75;5110310;28;20218;-58
2022/09/08 00:04:45;;;;;;;7.80;6.10;;;;;;;18.05;90.27;99737.44;5109922;28;20511;-53
2022/09/08 00:07:12;;;;;;;6.50;5.90;;;;;;;18.01;89.70;99742.00;5109666;28;20286;-53
2022/09/08 00:09:38;;;;;;;6.13;5.63;;;;;;;17.97;90.60;99743.09;5109531;28;20198;-54
2022/09/08 00:12:06;;;;;;;6.10;5.70;;;;;;;17.91;91.29;99740.81;5109763;28;20682;-53
2022/09/08 00:14:34;;;;;;;5.87;5.47;;;;;;;17.86;91.51;99745.47;5109320;28;20209;-52
2022/09/08 00:17:03;;;;;;;7.13;6.43;;;;;;;17.90;91.10;99744.38;5109037;28;20213;-57
2022/09/08 00:19:30;;;;;;;9.30;6.10;;;;;;;17.98;90.73;99741.31;5109459;28;20203;-58
2022/09/08 00:21:57;;;;;;;6.93;5.57;;;;;;;17.95;90.64;99739.69;5110364;28;20349;-58
2022/09/08 00:24:24;;;;;;;8.13;6.20;;;;;;;17.89;91.09;99737.44;5110251;28;20205;-57
2022/09/08 00:26:51;;;;;;;6.50;6.00;;;;;;;17.84;91.92;99742.06;5110690;28;20603;-56
2022/09/08 00:29:18;;;;;;;8.47;6.53;;;;;;;17.82;93.12;99743.97;5110324;28;20204;-57
2022/09/08 00:31:46;;;;;;;6.80;6.10;;;;;;;17.77;94.06;99745.97;5110467;28;20194;-55
2022/09/08 00:34:13;;;;;;;6.83;6.23;;;;;;;17.75;94.68;99747.81;5110286;28;20201;-57
2022/09/08 00:36:40;;;;;;;6.50;6.10;;;;;;;17.71;95.85;99743.69;5110458;28;20625;-57
2022/09/08 00:39:08;;;;;;;6.53;6.00;;;;;;;17.69;95.54;99748.19;5110367;28;20283;-54
2022/09/08 00:41:35;;;;;;;11.13;7.10;;;;;;;17.59;95.38;99724.19;5109210;28;20236;-53
2022/09/08 00:44:36;;;;;;;7.80;7.10;;;;;;;17.68;95.28;99754.34;5109230;28;20698;-52
2022/09/08 00:47:07;;;;;;;7.97;6.97;;;;;;;17.66;95.87;99761.47;5109363;28;20193;-53
2022/09/08 00:49:34;;;;;;;7.33;6.47;;;;;;;17.72;95.17;99767.22;5109285;28;20195;-53
2022/09/08 00:52:01;;;;;;;7.80;6.30;;;;;;;17.63;94.97;99759.00;5109226;28;20199;-53
2022/09/08 00:54:28;;;;;;;7.93;6.97;;;;;;;17.64;95.26;99765.94;5109022;28;20277;-53
2022/09/08 00:56:58;;;;;;;7.43;6.73;;;;;;;17.62;95.40;99770.38;5110051;28;20205;-53
2022/09/08 00:59:26;;;;;;;8.97;6.63;;;;;;;17.62;95.37;99770.38;5112840;28;20195;-53
2022/09/08 01:01:53;;;;;;;7.70;6.93;;;;;;;17.53;96.04;99765.63;5112804;28;20315;-53
2022/09/08 01:04:22;;;;;;;9.23;6.63;;;;;;;17.38;96.34;99741.88;5113249;28;20725;-57
2022/09/08 01:12:46;;;;;;;8.40;7.60;;;;;;;17.45;96.80;99762.56;5113761;28;20281;-58
2022/09/08 01:15:18;;;;;;;7.50;7.00;;;;;;;17.37;97.04;99763.84;5113044;28;20191;-58
2022/09/08 01:17:47;;;;;;;7.97;7.17;;;;;;;17.32;97.42;99767.63;5113144;28;20571;-57
2022/09/08 01:20:17;;;;;;;8.60;7.60;;;;;;;17.09;98.59;99765.34;5112492;28;20286;-57
2022/09/08 01:23:10;;;;;;;9.37;7.43;;;;;;;17.01;99.27;99771.00;5112679;28;20309;-57
2022/09/08 01:26:01;;;;;;;7.77;7.10;;;;;;;16.68;99.86;99724.59;5112301;28;20252;-57
2022/09/08 01:28:35;;;;;;;8.97;6.63;;;;;;;16.96;100.00;99763.34;5112230;28;20201;-58
2022/09/08 01:31:04;;;;;;;7.20;6.50;;;;;;;16.94;100.00;99757.31;5112258;28;20200;-52
2022/09/08 01:33:31;;;;;;;7.20;6.57;;;;;;;16.88;100.00;99756.81;5111878;28;20230;-56
2022/09/08 01:35:59;;;;;;;7.50;6.73;;;;;;;16.83;100.00;99758.78;5112270;28;20625;-57
2022/09/08 01:38:26;;;;;;;7.57;6.97;;;;;;;16.81;100.00;99752.81;5112614;28;20226;-58
2022/09/08 01:40:52;;;;;;;8.17;6.77;;;;;;;16.92;100.00;99755.72;5112873;28;20203;-58
2022/09/08 01:43:19;;;;;;;9.80;7.40;;;;;;;16.84;100.00;99757.88;5112744;28;20225;-57
2022/09/08 01:45:48;;;;;;;7.60;6.83;;;;;;;16.76;100.00;99750.41;5113367;28;20678;-57
2022/09/08 01:48:15;;;;;;;12.50;7.43;;;;;;;16.78;100.00;99750.31;5113193;28;20205;-55
2022/09/08 01:50:42;;;;;;;8.03;7.33;;;;;;;16.82;100.00;99747.47;5112316;28;20859;-52
2022/09/08 01:53:09;;;;;;;8.97;6.60;;;;;;;16.91;100.00;99746.16;5112183;28;20199;-59
2022/09/08 01:55:36;;;;;;;9.10;7.40;;;;;;;16.95;100.00;99752.94;5111822;28;20199;-58
2022/09/08 01:58:03;;;;;;;7.40;6.67;;;;;;;16.96;100.00;99757.25;5111683;28;20198;-57
2022/09/08 02:00:30;;;;;;;7.83;6.67;;;;;;;16.96;100.00;99754.63;5111609;28;20285;-58
2022/09/08 02:02:58;;;;;;;10.73;6.83;;;;;;;16.97;100.00;99751.06;5111467;28;20312;-53
2022/09/08 02:05:25;;;;;;;8.80;7.40;;;;;;;16.86;100.00;99738.50;5111752;27;20203;-52
2022/09/08 02:07:52;;;;;;;11.17;7.47;;;;;;;16.83;100.00;99743.06;5111360;28;20198;-52
2022/09/08 02:10:19;;;;;;;9.13;6.87;;;;;;;16.82;100.00;99736.97;5111368;28;20225;-52
2022/09/08 02:12:46;;;;;;;8.13;7.40;;;;;;;16.78;100.00;99726.72;5111650;28;20620;-51
2022/09/08 02:15:13;;;;;;;7.23;6.63;;;;;;;16.78;100.00;99730.19;5111402;28;20205;-58
2022/09/08 02:17:40;;;;;;;8.77;7.27;;;;;;;16.69;100.00;99710.56;5111067;28;20194;-59
2022/09/08 02:20:09;;;;;;;8.10;7.37;;;;;;;16.83;100.00;99732.56;5111266;28;20199;-58
2022/09/08 02:22:36;;;;;;;7.23;6.73;;;;;;;16.70;100.00;99722.72;5111010;28;20258;-58
2022/09/08 02:25:03;;;;;;;7.80;7.10;;;;;;;16.71;100.00;99731.41;5110991;28;20205;-59
2022/09/08 02:27:29;;;;;;;7.10;6.67;;;;;;;16.75;100.00;99732.97;5111075;28;20720;-59
2022/09/08 02:29:56;;;;;;;7.70;7.00;;;;;;;16.79;100.00;99720.56;5111223;28;20217;-58
2022/09/08 02:32:23;;;;;;;8.20;6.63;;;;;;;16.79;100.00;99725.81;5110964;28;20710;-57
2022/09/08 02:34:52;;;;;;;8.27;7.30;;;;;;;16.71;100.00;99728.78;5111422;28;20642;-57
2022/09/08 02:37:20;;;;;;;8.90;7.67;;;;;;;16.63;100.00;99728.34;5111239;28;20681;-57
2022/09/08 02:39:47;;;;;;;7.23;6.57;;;;;;;16.54;100.00;99728.78;5111500;28;20197;-57
2022/09/08 02:42:14;;;;;;;7.70;7.10;;;;;;;16.50;100.00;99725.44;5111475;28;20226;-58
2022/09/08 02:44:41;;;;;;;7.63;6.93;;;;;;;16.46;100.00;99720.47;5110941;28;20254;-58
2022/09/08 02:47:08;;;;;;;10.87;7.33;;;;;;;16.34;100.00;99696.56;5111449;28;20688;-58
2022/09/08 02:49:35;;;;;;;8.13;7.43;;;;;;;16.47;100.00;99715.16;5110688;28;20194;-52
2022/09/08 02:52:02;;;;;;;7.90;7.20;;;;;;;16.37;100.00;99713.88;5110697;28;20198;-52
2022/09/08 02:54:30;;;;;;;8.97;7.97;;;;;;;16.34;100.00;99716.66;5110901;28;20198;-58
2022/09/08 02:56:57;;;;;;;8.77;7.87;;;;;;;16.32;100.00;99727.22;5111283;28;20205;-57
2022/09/08 02:59:25;;;;;;;8.13;7.43;;;;;;;16.28;100.00;99724.81;5111106;28;25064;-57
2022/09/08 03:01:52;;;;;;;8.93;8.10;;;;;;;16.35;100.00;99726.22;5110932;28;25101;-57
2022/09/08 03:04:19;;;;;;;8.60;7.70;;;;;;;16.41;100.00;99725.91;5110960;28;20228;-57
2022/09/08 03:06:46;;;;;;;9.40;7.30;;;;;;;16.46;100.00;99729.16;5110575;28;25093;-52
2022/09/08 03:09:13;;;;;;;8.80;7.43;;;;;;;16.47;100.00;99724.78;5110800;28;25103;-57
2022/09/08 03:11:42;;;;;;;8.57;7.77;;;;;;;16.40;100.00;99733.84;5110473;28;20215;-58
2022/09/08 03:14:09;;;;;;;8.83;8.13;;;;;;;16.41;100.00;99740.78;5109893;28;25081;-58
2022/09/08 03:16:36;;;;;;;8.57;7.87;;;;;;;16.42;100.00;99739.84;5110224;28;25145;-58
2022/09/08 03:19:04;;;;;;;8.53;7.80;;;;;;;16.34;100.00;99748.94;5110210;28;20208;-58
2022/09/08 03:21:31;;;;;;;10.30;9.45;;;;;;;16.32;100.00;99742.94;5109711;28;25175;-52
2022/09/08 03:23:58;;;;;;;10.03;9.03;;;;;;;16.20;100.00;99743.53;5109689;28;25050;-53
2022/09/08 03:26:25;;;;;;;8.90;8.00;;;;;;;16.13;100.00;99741.28;5108806;28;25072;-53
2022/09/08 03:28:53;;;;;;;9.03;8.37;;;;;;;15.91;100.00;99710.88;5108795;28;20210;-53
2022/09/08 03:31:22;;;;;;;9.47;8.63;;;;;;;16.06;100.00;99743.34;5108672;28;20204;-52
2022/09/08 03:33:49;;;;;;;9.07;8.30;;;;;;;16.04;100.00;99746.94;5105692;28;25066;-52
2022/09/08 03:36:17;;;;;;;12.57;8.43;;;;;;;15.96;100.00;99740.31;5108485;28;25135;-52
2022/09/08 03:38:44;;;;;;;9.47;8.47;;;;;;;16.00;100.00;99745.41;5108336;28;25115;-52
2022/09/08 03:41:12;;;;;;;8.53;7.80;;;;;;;15.99;100.00;99747.16;5108529;28;20210;-59
2022/09/08 03:43:43;;;;;;;8.80;8.00;;;;;;;15.93;100.00;99740.44;5108587;28;20250;-58
2022/09/08 03:46:11;;;;;;;9.47;7.93;;;;;;;15.77;100.00;99736.00;5109374;28;20662;-58
2022/09/08 03:48:38;;;;;;;8.43;7.73;;;;;;;15.63;100.00;99741.03;5108856;28;25072;-58
2022/09/08 03:51:10;;;;;;;9.20;8.13;;;;;;;15.55;100.00;99744.00;5108610;28;20716;-58
2022/09/08 03:53:37;;;;;;;9.10;8.20;;;;;;;15.58;100.00;99729.00;5108242;28;20199;-58
2022/09/08 03:56:07;;;;;;;11.93;8.10;;;;;;;15.59;100.00;99735.06;5108552;28;20658;-52
2022/09/08 03:58:34;;;;;;;9.63;7.80;;;;;;;15.54;100.00;99735.31;5108311;28;20282;-52
2022/09/08 04:01:01;;;;;;;9.23;8.33;;;;;;;15.53;100.00;99745.78;5108317;28;20190;-59
2022/09/08 04:03:30;;;;;;;8.40;7.57;;;;;;;15.51;100.00;99737.16;5108181;28;20226;-59
2022/09/08 04:06:00;;;;;;;11.40;8.50;;;;;;;15.54;100.00;99745.75;5108190;28;20655;-59
2022/09/08 04:08:27;;;;;;;8.70;8.07;;;;;;;15.69;100.00;99738.13;5105665;28;20195;-59
2022/09/08 04:10:54;;;;;;;8.53;7.70;;;;;;;15.73;100.00;99739.69;5108276;28;20190;-59
2022/09/08 04:13:20;;;;;;;7.57;6.97;;;;;;;15.70;100.00;99745.91;5108529;28;20199;-61
2022/09/08 04:15:47;;;;;;;8.33;7.53;;;;;;;15.74;100.00;99736.16;5108741;28;20649;-61
2022/09/08 04:18:14;;;;;;;8.33;7.73;;;;;;;15.83;100.00;99741.78;5108622;28;20201;-61
2022/09/08 04:20:43;;;;;;;9.23;8.43;;;;;;;15.96;100.00;99756.00;5108341;28;20195;-64
2022/09/08 04:23:10;;;;;;;9.27;7.73;;;;;;;16.00;100.00;99745.41;5108410;28;20685;-62
2022/09/08 04:25:37;;;;;;;17.50;8.80;;;;;;;16.05;100.00;99749.50;5108501;28;20702;-62
2022/09/08 04:28:04;;;;;;;13.07;7.87;;;;;;;16.10;100.00;99754.53;5108781;28;20626;-62
2022/09/08 04:30:31;;;;;;;10.40;8.90;;;;;;;16.19;100.00;99754.91;5108267;28;20191;-62
2022/09/08 04:32:58;;;;;;;12.90;8.83;;;;;;;16.23;100.00;99753.00;5111144;28;20223;-61
2022/09/08 04:35:25;;;;;;;12.60;8.23;;;;;;;16.31;100.00;99758.72;5112106;28;20201;-61
2022/09/08 04:37:53;;;;;;;9.10;7.93;;;;;;;16.38;100.00;99754.88;5112373;28;20206;-62
2022/09/08 04:40:20;;;;;;;15.63;7.97;;;;;;;16.59;100.00;99755.63;5112323;28;20205;-62
2022/09/08 04:42:47;;;;;;;10.50;7.63;;;;;;;17.39;100.00;99763.72;5112659;28;20204;-61
2022/09/08 04:45:15;;;;;;;31.53;8.90;;;;;;;18.22;95.16;99763.59;5112149;28;20733;-52
2022/09/08 04:47:42;;;;;;;56.90;10.00;;;;;;;18.49;90.75;99774.34;5111839;28;20259;-52
2022/09/08 04:50:10;;;;;;;37.93;9.10;;;;;;;18.46;90.74;99785.00;5112178;28;20202;-52
2022/09/08 04:52:36;;;;;;;15.10;7.03;;;;;;;18.33;91.06;99784.00;5112136;28;20666;-53
2022/09/08 04:55:07;;;;;;;11.02;7.10;;;;;;;18.33;91.25;99787.50;5112565;28;20202;-54
2022/09/08 04:57:35;;;;;;;8.93;6.70;;;;;;;18.56;89.24;99780.94;5111438;28;20195;-53
2022/09/08 05:00:02;;;;;;;7.82;6.53;;;;;;;19.32;85.31;99802.75;5111719;28;20194;-53
2022/09/08 05:02:29;;;;;;;8.40;6.57;;;;;;;20.52;79.04;99803.16;5112722;28;20197;-61
2022/09/08 05:04:56;;;;;;;8.43;5.65;;;;;;;22.22;70.15;99806.44;5112991;28;20218;-61
2022/09/08 05:07:24;;;;;;;6.53;5.88;;;;;;;24.18;61.16;99806.44;5112882;28;20212;-60
2022/09/08 05:09:50;;;;;;;6.05;5.55;;;;;;;25.26;54.96;99814.31;5112777;28;20190;-54
2022/09/08 05:12:19;;;;;;;6.65;5.90;;;;;;;25.74;53.02;99812.91;5113154;28;20204;-60
2022/09/08 05:14:46;;;;;;;7.07;5.85;;;;;;;26.19;51.18;99802.69;5112444;28;20209;-61
2022/09/08 05:17:13;;;;;;;6.50;5.53;;;;;;;27.08;48.98;99813.22;5112654;28;20202;-61
2022/09/08 05:19:39;;;;;;;7.03;5.63;;;;;;;28.39;45.14;99814.00;5112620;28;20297;-61
2022/09/08 05:22:06;;;;;;;10.73;5.88;;;;;;;28.90;43.33;99808.00;5112419;28;20207;-61
2022/09/08 05:24:33;;;;;;;10.18;6.00;;;;;;;29.60;41.16;99811.56;5112327;28;20713;-61
2022/09/08 05:27:00;;;;;;;10.70;5.65;;;;;;;30.23;39.31;99811.22;5112366;28;20614;-54
2022/09/08 05:29:28;;;;;;;5.80;5.40;;;;;;;30.07;39.67;99800.44;5112137;28;20202;-54
2022/09/08 05:31:55;;;;;;;10.23;5.60;;;;;;;30.45;38.98;99803.56;5112162;28;20199;-54
2022/09/08 05:34:22;;;;;;;9.55;5.50;;;;;;;30.60;38.48;99807.28;5112086;28;20190;-54
2022/09/08 05:36:49;;;;;;;6.13;5.50;;;;;;;30.72;37.81;99813.16;5111975;28;20201;-53
2022/09/08 05:39:16;;;;;;;9.60;5.85;;;;;;;31.35;36.98;99814.19;5112152;28;20245;-54
2022/09/08 05:41:43;;;;;;;9.70;5.80;;;;;;;31.42;36.34;99818.88;5112476;28;20259;-54
2022/09/08 05:44:14;;;;;;;7.50;5.10;;;;;;;31.26;35.93;99800.97;5111412;28;20263;-61
2022/09/08 05:46:43;;;;;;;6.45;5.45;;;;;;;32.06;35.15;99813.31;5111714;28;20195;-54
2022/09/08 05:49:10;;;;;;;7.72;6.00;;;;;;;31.95;35.11;99823.59;5111945;28;20205;-62
2022/09/08 05:51:36;;;;;;;7.57;5.50;;;;;;;31.99;34.87;99806.97;5111658;28;20201;-60
2022/09/08 05:54:04;;;;;;;5.60;5.13;;;;;;;31.95;34.77;99815.53;5111737;28;20194;-61
2022/09/08 05:56:31;;;;;;;13.40;6.38;;;;;;;31.80;35.23;99812.78;5111466;28;20198;-61
2022/09/08 05:58:59;;;;;;;7.00;5.72;;;;;;;31.93;34.72;99812.22;5112042;28;20289;-61
2022/09/08 06:01:27;;;;;;;5.40;5.10;;;;;;;32.44;33.92;99814.31;5111558;28;20191;-63
2022/09/08 06:03:56;;;;;;;5.97;5.38;;;;;;;32.68;33.72;99801.75;5111399;28;20228;-62
2022/09/08 06:06:23;;;;;;;7.90;5.38;;;;;;;32.31;33.71;99803.31;5111396;28;20621;-62
2022/09/08 06:08:52;;;;;;;5.80;5.20;;;;;;;33.15;33.04;99813.16;5111504;28;20209;-61
2022/09/08 06:11:19;;;;;;;8.40;5.75;;;;;;;33.30;32.25;99807.81;5111782;28;20726;-62
2022/09/08 06:13:46;;;;;;;5.55;5.05;;;;;;;33.41;32.28;99809.25;5111303;28;20194;-61
2022/09/08 06:16:14;;;;;;;5.88;5.47;;;;;;;33.48;32.02;99805.63;5111499;28;20205;-61
2022/09/08 06:18:43;;;;;;;7.20;5.25;;;;;;;34.14;30.74;99811.94;5111168;28;20727;-55
2022/09/08 06:21:16;;;;;;;6.18;5.57;;;;;;;33.17;31.77;99813.81;5111215;28;20282;-53
2022/09/08 06:23:43;;;;;;;6.47;5.60;;;;;;;33.58;31.82;99816.13;5110964;28;20206;-53
2022/09/08 06:26:27;;;;;;;9.25;5.30;;;;;;;34.43;30.26;99819.13;5111065;28;20198;-53
2022/09/08 06:28:59;;;;;;;7.30;6.40;;;;;;;34.28;30.77;99812.97;5111089;28;20195;-53
2022/09/08 06:31:31;;;;;;;8.38;6.40;;;;;;;34.34;30.92;99816.75;5111030;28;20281;-54
2022/09/08 06:34:02;;;;;;;9.55;5.88;;;;;;;34.56;30.41;99826.53;5110789;28;20316;-54
2022/09/08 06:36:43;;;;;;;8.10;6.00;;;;;;;35.18;29.33;99815.94;5110949;28;20210;-54
2022/09/08 06:39:16;;;;;;;6.93;6.30;;;;;;;35.16;29.24;99812.59;5110926;28;20194;-54
2022/09/08 06:41:47;;;;;;;11.40;6.03;;;;;;;34.84;29.87;99822.09;5110728;28;20202;-54
2022/09/08 06:44:19;;;;;;;10.50;6.30;;;;;;;34.97;29.60;99828.63;5110690;28;20229;-54
2022/09/08 06:46:46;;;;;;;10.45;6.53;;;;;;;35.58;29.35;99817.06;5110672;28;20198;-55
2022/09/08 06:49:14;;;;;;;6.70;6.03;;;;;;;35.52;28.98;99820.59;5110673;28;20205;-54
2022/09/08 06:51:47;;;;;;;10.98;6.25;;;;;;;35.47;28.80;99820.34;5110622;28;20589;-53
2022/09/08 06:54:29;;;;;;;5.93;5.40;;;;;;;35.76;28.28;99818.47;5110060;28;20194;-53
2022/09/08 06:57:04;;;;;;;8.93;6.25;;;;;;;35.94;28.52;99819.59;5110417;28;20204;-53
2022/09/08 06:59:49;;;;;;;6.93;6.35;;;;;;;36.08;28.05;99830.47;5110717;28;20673;-54
2022/09/08 07:02:48;;;;;;;6.43;5.82;;;;;;;36.41;27.26;99822.50;5110442;28;20190;-54
2022/09/08 07:05:31;;;;;;;11.57;6.40;;;;;;;36.44;27.76;99824.81;5110253;28;20214;-54
2022/09/08 07:08:09;;;;;;;9.82;5.82;;;;;;;35.68;27.86;99814.84;5110248;28;20235;-54
2022/09/08 07:10:46;;;;;;;16.38;6.45;;;;;;;35.72;28.13;99827.97;5110261;28;20210;-53
2022/09/08 07:13:22;;;;;;;7.18;5.90;;;;;;;35.86;27.93;99825.19;5110184;28;20214;-55
2022/09/08 07:15:59;;;;;;;6.20;5.15;;;;;;;35.75;28.22;99827.59;5110206;28;20206;-53
2022/09/08 07:18:34;;;;;;;6.18;5.43;;;;;;;35.75;27.93;99833.00;5109947;28;20228;-54
2022/09/08 07:21:17;;;;;;;9.57;5.28;;;;;;;35.24;29.00;99828.66;5110264;28;20201;-54
2022/09/08 07:23:46;;;;;;;7.55;4.82;;;;;;;34.53;29.43;99827.75;5109980;28;20205;-53
2022/09/08 07:26:20;;;;;;;6.57;4.88;;;;;;;34.34;29.44;99828.34;5109923;28;20222;-53
2022/09/08 07:28:51;;;;;;;6.78;5.95;;;;;;;35.82;28.00;99840.09;5110215;28;20229;-53
2022/09/08 07:31:22;;;;;;;6.30;5.40;;;;;;;35.58;28.11;99830.59;5110170;28;20749;-54
2022/09/08 07:33:53;;;;;;;5.57;4.72;;;;;;;35.19;28.50;99822.19;5109913;28;20230;-54
2022/09/08 07:36:27;;;;;;;8.25;5.30;;;;;;;35.69;27.80;99829.19;5109962;28;20273;-54
2022/09/08 07:38:57;;;;;;;8.43;5.22;;;;;;;36.88;26.87;99827.00;5109836;28;20189;-55
2022/09/08 07:41:34;;;;;;;5.53;4.78;;;;;;;38.29;25.15;99834.53;5109795;28;20207;-55
2022/09/08 07:44:03;;;;;;;5.75;4.70;;;;;;;38.93;24.44;99836.25;5109953;28;20661;-60
2022/09/08 07:46:43;;;;;;;5.38;4.88;;;;;;;39.07;24.54;99839.72;5109804;28;20198;-60
2022/09/08 07:49:21;;;;;;;5.75;4.60;;;;;;;38.80;23.94;99839.91;5109800;28;20649;-61
2022/09/08 07:51:56;;;;;;;10.70;4.80;;;;;;;38.95;24.31;99846.88;5110012;28;20229;-54
2022/09/08 07:54:52;;;;;;;6.18;4.47;;;;;;;38.74;24.38;99846.19;5109687;28;20197;-54
2022/09/08 07:57:28;;;;;;;5.35;4.90;;;;;;;38.85;23.96;99844.66;5109530;28;20221;-55
2022/09/08 08:00:03;;;;;;;6.05;4.60;;;;;;;40.47;22.70;99843.50;5109731;28;20202;-61
2022/09/08 08:03:05;;;;;;;7.47;4.90;;;;;;;40.31;22.84;99844.13;5109665;28;20193;-61
2022/09/08 08:05:38;;;;;;;8.82;5.10;;;;;;;39.42;23.78;99840.06;5109732;28;20224;-60
2022/09/08 08:08:13;;;;;;;6.78;5.00;;;;;;;39.17;24.24;99840.88;5113945;28;20201;-60
2022/09/08 08:10:48;;;;;;;6.50;4.63;;;;;;;40.00;22.95;99843.25;5113833;28;20209;-54
2022/09/08 08:13:23;;;;;;;5.10;4.78;;;;;;;39.96;22.93;99836.59;5113898;28;20608;-54
2022/09/08 08:15:58;;;;;;;7.43;4.78;;;;;;;40.84;22.43;99838.81;5113706;28;20205;-54
2022/09/08 08:18:37;;;;;;;5.68;4.78;;;;;;;41.32;21.32;99841.38;5113419;28;20198;-54
2022/09/08 08:21:13;;;;;;;5.00;4.43;;;;;;;41.24;21.60;99837.09;5114272;28;20680;-54
2022/09/08 08:24:05;;;;;;;10.25;4.45;;;;;;;40.73;21.89;99829.56;5113559;28;20197;-54
2022/09/08 08:26:41;;;;;;;8.73;5.13;;;;;;;38.71;24.31;99830.38;5111423;28;20222;-59
2022/09/08 08:29:38;;;;;;;9.00;5.63;;;;;;;38.96;23.96;99824.94;5113664;28;20205;-61
2022/09/08 08:32:11;;;;;;;5.95;5.20;;;;;;;39.30;23.49;99820.91;5113671;28;20200;-59
2022/09/08 08:34:44;;;;;;;5.47;4.57;;;;;;;39.27;23.58;99823.28;5113493;28;20196;-60
2022/09/08 08:37:17;;;;;;;7.00;6.30;;;;;;;38.64;23.93;99805.13;5113582;27;20208;-60
2022/09/08 08:39:46;;;;;;;8.52;6.57;;;;;;;38.23;24.72;99812.88;5113392;28;20198;-55
2022/09/08 08:42:36;;;;;;;15.00;6.43;;;;;;;36.43;26.61;99799.66;5113338;27;20205;-54
2022/09/08 08:45:16;;;;;;;9.38;5.45;;;;;;;34.58;28.34;99786.72;5113171;28;20454;-54
2022/09/08 08:48:01;;;;;;;6.43;5.30;;;;;;;32.21;32.24;99788.44;5113283;28;20202;-54
2022/09/08 08:51:09;;;;;;;7.32;5.22;;;;;;;30.48;35.26;99779.09;5113214;28;20209;-60
2022/09/08 08:53:55;;;;;;;6.68;6.03;;;;;;;29.38;37.74;99777.31;5058346;28;20230;-59
2022/09/08 08:56:29;;;;;;;9.32;5.57;;;;;;;29.46;37.49;99773.88;5091958;28;20233;-59
2022/09/08 08:59:22;;;;;;;7.35;5.70;;;;;;;31.41;34.83;99753.63;5092017;28;20284;-53
2022/09/08 09:02:06;;;;;;;8.80;5.93;;;;;;;33.06;32.09;99770.38;5092112;28;20233;-53
2022/09/08 09:04:52;;;;;;;8.98;5.50;;;;;;;33.40;31.29;99765.34;5092447;28;20591;-54
2022/09/08 09:07:51;;;;;;;11.65;5.53;;;;;;;33.40;31.67;99765.34;5092421;28;20730;-54
2022/09/08 09:10:49;;;;;;;6.07;4.93;;;;;;;33.89;30.45;99764.78;5092755;28;20458;-54
2022/09/08 09:13:46;;;;;;;11.32;5.78;;;;;;;33.25;31.31;99744.81;5047103;28;20583;-54
2022/09/08 09:16:44;;;;;;;6.53;5.72;;;;;;;31.98;33.55;99750.75;5092128;28;20290;-60
2022/09/08 09:19:47;;;;;;;6.20;5.60;;;;;;;31.01;35.14;99736.59;5091680;28;20589;-53
2022/09/08 09:22:22;;;;;;;6.03;4.85;;;;;;;30.09;35.88;99739.53;5092080;28;20195;-53
2022/09/08 09:25:07;;;;;;;6.97;4.80;;;;;;;29.52;37.40;99728.59;5091806;28;20253;-53
2022/09/08 09:27:42;;;;;;;5.53;5.03;;;;;;;29.25;37.69;99721.56;5092046;28;20199;-53
2022/09/08 09:30:25;;;;;;;6.90;5.70;;;;;;;29.28;37.98;99720.41;5103003;28;20204;-53
2022/09/08 09:33:28;;;;;;;7.88;5.30;;;;;;;29.33;37.50;99714.59;5089767;28;20233;-54
2022/09/08 09:36:20;;;;;;;6.25;5.18;;;;;;;30.03;36.52;99717.91;5080994;28;20208;-54
2022/09/08 09:39:23;;;;;;;9.35;5.28;;;;;;;31.46;34.20;99712.91;5091512;28;20213;-53
2022/09/08 09:42:21;;;;;;;5.63;5.07;;;;;;;33.60;30.89;99727.94;5088555;28;20737;-53
2022/09/08 09:45:18;;;;;;;5.82;5.10;;;;;;;34.55;29.17;99725.94;5091344;28;20238;-54
2022/09/08 09:48:21;;;;;;;7.95;5.13;;;;;;;33.45;30.06;99719.88;5062446;28;20205;-54
2022/09/08 09:51:06;;;;;;;6.90;4.70;;;;;;;32.01;32.22;99712.81;5048739;28;20242;-53
2022/09/08 09:54:00;;;;;;;5.30;4.93;;;;;;;30.90;34.30;99706.63;5091214;28;20199;-53
2022/09/08 09:57:20;;;;;;;5.90;5.40;;;;;;;29.94;36.22;99698.31;5091141;28;20195;-54
2022/09/08 10:00:17;;;;;;;6.10;5.15;;;;;;;29.33;37.75;99696.72;5075516;28;20199;-54
2022/09/08 10:03:17;;;;;;;6.90;5.25;;;;;;;28.52;39.58;99690.81;5091049;28;20195;-54
2022/09/08 10:06:23;;;;;;;5.32;4.93;;;;;;;28.15;40.95;99693.59;5091016;28;20233;-53
2022/09/08 10:09:18;;;;;;;5.82;5.43;;;;;;;27.77;42.05;99689.34;5090955;28;20585;-53
2022/09/08 10:12:21;;;;;;;8.48;5.70;;;;;;;27.55;42.80;99681.72;5091022;28;20195;-54
2022/09/08 10:15:20;;;;;;;7.53;5.82;;;;;;;27.44;43.10;99680.94;5090670;28;20201;-54
2022/09/08 10:18:22;;;;;;;14.23;6.60;;;;;;;27.46;43.01;99678.97;5090727;28;20203;-53
2022/09/08 10:21:13;;;;;;;9.85;5.80;;;;;;;27.43;44.08;99665.91;5090732;28;20209;-53
2022/09/08 10:24:05;;;;;;;6.57;5.53;;;;;;;27.42;43.85;99666.94;5090834;28;20552;-54
2022/09/08 10:27:12;;;;;;;6.10;5.50;;;;;;;27.66;43.42;99660.22;5088900;27;20227;-54
2022/09/08 10:30:02;;;;;;;5.60;5.10;;;;;;;27.80;42.82;99657.03;5090348;28;20286;-53
2022/09/08 10:33:04;;;;;;;7.57;6.05;;;;;;;27.65;42.47;99642.56;5090528;28;20659;-54
2022/09/08 10:35:39;;;;;;;7.35;5.00;;;;;;;27.58;42.88;99636.13;5090422;28;20606;-53
2022/09/08 10:38:44;;;;;;;5.65;5.25;;;;;;;27.61;43.07;99630.50;5090586;28;20195;-54
2022/09/08 10:41:55;;;;;;;7.68;6.45;;;;;;;27.83;42.95;99628.25;5090550;28;20227;-55
2022/09/08 10:44:44;;;;;;;7.35;6.68;;;;;;;27.75;43.02;99619.34;5090449;28;20210;-54
2022/09/08 10:47:55;;;;;;;10.38;8.55;;;;;;;27.77;42.98;99622.66;5090308;28;20258;-54
2022/09/08 10:50:23;;;;;;;7.40;6.47;;;;;;;27.85;42.85;99625.44;5090127;28;20195;-54
2022/09/08 10:53:06;;;;;;;7.20;5.35;;;;;;;27.73;42.84;99626.63;5090424;28;20282;-54
2022/09/08 10:55:52;;;;;;;7.05;5.50;;;;;;;27.70;42.97;99624.25;5087296;28;20670;-54
2022/09/08 10:58:50;;;;;;;5.90;5.28;;;;;;;27.65;42.62;99622.03;5090619;28;20570;-54
2022/09/08 11:01:50;;;;;;;6.22;5.43;;;;;;;27.53;42.68;99609.06;5078042;28;20592;-53
2022/09/08 11:04:45;;;;;;;6.57;5.95;;;;;;;27.60;43.44;99600.34;5056573;28;20316;-54
2022/09/08 11:07:46;;;;;;;7.47;5.93;;;;;;;27.65;43.59;99602.56;5090161;28;20694;-60
2022/09/08 11:10:25;;;;;;;5.93;5.32;;;;;;;27.65;42.53;99597.22;5090299;28;20290;-60
2022/09/08 11:13:03;;;;;;;6.00;5.35;;;;;;;27.46;42.62;99574.97;5089924;28;20203;-59
2022/09/08 11:16:04;;;;;;;5.65;5.18;;;;;;;27.59;42.56;99592.47;5104600;28;20194;-59
2022/09/08 11:18:38;;;;;;;5.88;5.57;;;;;;;27.36;42.47;99582.22;5109711;28;20210;-60
2022/09/08 11:21:10;;;;;;;7.70;6.03;;;;;;;27.28;42.97;99579.47;5110314;28;20201;-60
2022/09/08 11:23:56;;;;;;;5.90;5.40;;;;;;;27.31;42.88;99549.84;5110158;28;20190;-59
2022/09/08 11:26:44;;;;;;;5.85;5.55;;;;;;;27.52;43.21;99570.06;5110343;28;20248;-60
2022/09/08 11:29:15;;;;;;;6.13;5.60;;;;;;;27.42;43.96;99554.13;5110121;28;20281;-60
2022/09/08 11:31:55;;;;;;;8.30;5.32;;;;;;;27.54;44.48;99571.56;5110147;28;20201;-59
2022/09/08 11:34:36;;;;;;;6.70;5.22;;;;;;;27.60;43.74;99562.16;5110343;28;20290;-60
2022/09/08 11:37:31;;;;;;;8.13;5.40;;;;;;;27.67;43.94;99556.06;5110289;28;20569;-59
2022/09/08 11:40:22;;;;;;;6.55;5.95;;;;;;;27.70;43.98;99557.59;5110157;28;20221;-60
2022/09/08 11:43:05;;;;;;;4.97;4.78;;;;;;;27.60;43.83;99554.16;5109972;28;20203;-61
2022/09/08 11:45:46;;;;;;;6.55;5.93;;;;;;;27.69;44.67;99556.75;5109701;28;20423;-62
2022/09/08 11:48:51;;;;;;;6.28;5.63;;;;;;;27.62;44.58;99550.34;5109829;28;20198;-61
2022/09/08 11:51:42;;;;;;;9.57;5.05;;;;;;;27.61;44.09;99547.84;5057954;28;20210;-61
2022/09/08 11:54:23;;;;;;;5.65;5.15;;;;;;;27.62;44.71;99552.19;5109783;28;20194;-62
2022/09/08 11:57:08;;;;;;;6.13;5.45;;;;;;;27.60;45.28;99548.81;5109819;28;20594;-62
2022/09/08 12:00:03;;;;;;;7.47;6.30;;;;;;;27.66;45.85;99537.53;5109670;28;20195;-66
2022/09/08 12:03:02;;;;;;;6.28;5.38;;;;;;;27.61;44.84;99531.84;5109788;28;20692;-61
2022/09/08 12:05:41;;;;;;;7.03;5.57;;;;;;;27.44;45.94;99528.13;5102666;28;20281;-62
2022/09/08 12:08:44;;;;;;;6.68;5.72;;;;;;;27.51;45.51;99523.88;5109860;28;20216;-61
2022/09/08 12:11:25;;;;;;;12.88;5.38;;;;;;;27.70;45.34;99522.91;5109609;28;20285;-61
2022/09/08 12:14:01;;;;;;;11.88;5.43;;;;;;;27.78;45.03;99529.16;5109630;28;20285;-61
2022/09/08 12:16:44;;;;;;;8.20;5.10;;;;;;;27.71;44.40;99521.94;5109518;28;20194;-62